Time;durP1;ratioP1;P1;durP2;ratioP2;P2;SDS_P1;SDS_P2;PMS_P1;PMS_P2;Temp;Humidity;BMP_temperature;BMP_pressure;BME280_temperature;BME280_humidity;BME280_pressure;Samples;Min_cycle;Max_cycle;Signal;HPM_P1;HPM_P2
2021/11/05 00:00:27;;;;;;;4.82;4.03;;;10.60;74.80;;;;;;5055619;28;20086;-79
2021/11/05 00:02:54;;;;;;;5.70;4.30;;;10.60;74.80;;;;;;5053721;28;20029;-79
2021/11/05 00:05:25;;;;;;;5.20;4.15;;;10.60;74.80;;;;;;5053525;28;20059;-79
2021/11/05 00:07:50;;;;;;;5.68;4.53;;;10.60;74.80;;;;;;5053716;28;20033;-80
2021/11/05 00:10:17;;;;;;;5.50;3.95;;;10.50;74.70;;;;;;5053742;28;20112;-79
2021/11/05 00:12:45;;;;;;;5.72;4.43;;;10.50;74.70;;;;;;5070080;28;20108;-79
2021/11/05 00:15:11;;;;;;;5.38;4.10;;;10.50;74.70;;;;;;5036922;28;20036;-79
2021/11/05 00:17:37;;;;;;;5.22;3.92;;;10.50;75.40;;;;;;5053467;28;20037;-78
2021/11/05 00:20:04;;;;;;;5.05;3.80;;;10.50;74.80;;;;;;5053234;28;20032;-79
2021/11/05 00:22:30;;;;;;;5.78;4.10;;;10.50;74.70;;;;;;5053379;28;20121;-78
2021/11/05 00:24:56;;;;;;;5.35;3.83;;;10.40;74.70;;;;;;5053382;28;20502;-78
2021/11/05 00:27:22;;;;;;;5.20;4.00;;;10.40;74.60;;;;;;5053241;28;20124;-78
2021/11/05 00:29:48;;;;;;;5.05;3.83;;;10.40;74.60;;;;;;5053584;28;20446;-79
2021/11/05 00:32:14;;;;;;;4.88;3.95;;;10.40;74.60;;;;;;5054836;28;20025;-78
2021/11/05 00:34:39;;;;;;;5.50;4.15;;;10.40;74.60;;;;;;5053271;28;20033;-78
2021/11/05 00:37:06;;;;;;;5.22;3.90;;;10.40;74.60;;;;;;5052895;28;20037;-79
2021/11/05 00:39:32;;;;;;;5.45;3.88;;;10.30;74.60;;;;;;5053585;28;20060;-78
2021/11/05 00:41:59;;;;;;;5.30;4.00;;;10.30;74.60;;;;;;5053080;28;20032;-79
2021/11/05 00:44:25;;;;;;;4.95;3.80;;;10.30;74.60;;;;;;5069853;28;20021;-78
2021/11/05 00:46:51;;;;;;;4.65;3.63;;;10.30;74.60;;;;;;5052929;28;20041;-79
2021/11/05 00:49:17;;;;;;;4.70;3.60;;;10.30;74.60;;;;;;5053365;28;20367;-80
2021/11/05 00:51:42;;;;;;;4.95;3.47;;;10.20;74.50;;;;;;5053761;28;20029;-79
2021/11/05 00:54:08;;;;;;;4.55;3.22;;;10.20;74.60;;;;;;5052126;28;20428;-79
2021/11/05 00:56:35;;;;;;;5.70;3.35;;;10.20;74.50;;;;;;5052910;28;20044;-78
2021/11/05 00:59:01;;;;;;;5.22;3.55;;;10.20;74.60;;;;;;5037062;28;20028;-79
2021/11/05 01:01:27;;;;;;;5.05;3.70;;;10.10;74.50;;;;;;5053664;28;20033;-79
2021/11/05 01:03:53;;;;;;;5.05;3.58;;;10.10;74.50;;;;;;5052510;28;20029;-81
2021/11/05 01:06:18;;;;;;;5.18;3.83;;;10.10;74.50;;;;;;5052301;28;20397;-79
2021/11/05 01:08:45;;;;;;;4.50;3.33;;;10.10;74.50;;;;;;5052543;28;20405;-79
2021/11/05 01:11:11;;;;;;;3.92;3.17;;;10.10;74.50;;;;;;5052388;28;20040;-79
2021/11/05 01:13:37;;;;;;;5.05;3.88;;;10.10;74.50;;;;;;5052683;28;20029;-79
2021/11/05 01:16:04;;;;;;;4.88;3.30;;;10.10;74.60;;;;;;5036007;28;20083;-78
2021/11/05 01:18:30;;;;;;;5.85;3.80;;;10.00;74.50;;;;;;5068841;28;20446;-79
2021/11/05 01:20:56;;;;;;;3.88;3.05;;;10.00;74.50;;;;;;5055047;28;20124;-79
2021/11/05 01:23:21;;;;;;;4.47;3.40;;;10.00;74.50;;;;;;5053809;28;20074;-79
2021/11/05 01:25:51;;;;;;;4.93;3.65;;;10.00;74.50;;;;;;5054088;28;20056;-79
2021/11/05 01:28:17;;;;;;;4.72;3.42;;;10.00;74.50;;;;;;5054556;28;20036;-79
2021/11/05 01:30:43;;;;;;;4.32;3.38;;;9.90;74.50;;;;;;5052487;28;20021;-78
2021/11/05 01:33:11;;;;;;;4.18;3.30;;;9.90;74.50;;;;;;5054089;28;20098;-79
2021/11/05 01:35:38;;;;;;;5.20;3.33;;;9.90;74.50;;;;;;5054739;28;20041;-78
2021/11/05 01:38:06;;;;;;;4.60;3.30;;;9.90;74.50;;;;;;5054812;28;20137;-78
2021/11/05 01:40:33;;;;;;;3.80;3.20;;;9.90;74.50;;;;;;5055000;28;20029;-78
2021/11/05 01:43:01;;;;;;;4.25;3.08;;;9.80;74.40;;;;;;5054801;28;20044;-79
2021/11/05 01:45:28;;;;;;;4.50;3.33;;;9.80;74.50;;;;;;5053743;28;20033;-78
2021/11/05 01:47:54;;;;;;;3.85;2.97;;;9.90;74.50;;;;;;5036279;28;20063;-79
2021/11/05 01:50:20;;;;;;;4.65;3.17;;;9.80;74.50;;;;;;5052309;28;20114;-79
2021/11/05 01:52:48;;;;;;;4.53;3.08;;;9.70;74.40;;;;;;5052017;28;20036;-79
2021/11/05 01:55:14;;;;;;;4.25;3.10;;;9.80;74.50;;;;;;5036176;28;20083;-79
2021/11/05 01:57:42;;;;;;;4.18;3.13;;;9.70;74.40;;;;;;5052886;28;20029;-78
2021/11/05 02:00:11;;;;;;;4.60;3.42;;;9.70;74.50;;;;;;5052294;28;20033;-79
2021/11/05 02:02:39;;;;;;;4.40;3.17;;;9.70;74.40;;;;;;5053391;28;20115;-78
2021/11/05 02:05:05;;;;;;;4.40;3.10;;;9.70;74.40;;;;;;5053448;28;20068;-78
2021/11/05 02:07:34;;;;;;;3.78;2.95;;;9.60;74.30;;;;;;5056070;28;20037;-78
2021/11/05 02:10:06;;;;;;;4.15;3.03;;;9.60;74.40;;;;;;5057501;28;20532;-79
2021/11/05 02:12:33;;;;;;;4.60;3.40;;;9.60;74.40;;;;;;5056169;28;20044;-79
2021/11/05 02:15:00;;;;;;;4.25;3.20;;;9.60;74.40;;;;;;5039631;28;20044;-80
2021/11/05 02:17:27;;;;;;;3.78;2.80;;;9.60;74.40;;;;;;5055708;28;20083;-79
2021/11/05 02:19:53;;;;;;;3.30;2.58;;;9.60;74.40;;;;;;5055377;28;20043;-78
2021/11/05 02:22:19;;;;;;;5.68;3.13;;;9.60;74.40;;;;;;5072130;28;20033;-79
2021/11/05 02:24:45;;;;;;;4.00;2.90;;;9.50;74.30;;;;;;5055463;28;20057;-79
2021/11/05 02:27:11;;;;;;;3.67;2.75;;;9.50;74.30;;;;;;5072340;28;20045;-78
2021/11/05 02:29:37;;;;;;;3.70;3.00;;;9.50;74.40;;;;;;5055082;28;20474;-78
2021/11/05 02:32:06;;;;;;;2.95;2.50;;;9.50;74.40;;;;;;5055521;28;20036;-79
2021/11/05 02:34:32;;;;;;;3.83;3.10;;;9.50;74.40;;;;;;5055436;28;20032;-78
2021/11/05 02:37:02;;;;;;;4.25;2.92;;;9.50;74.40;;;;;;5055768;28;20036;-79
2021/11/05 02:39:28;;;;;;;3.78;2.72;;;9.40;74.40;;;;;;5055290;28;20174;-79
2021/11/05 02:41:54;;;;;;;3.08;2.60;;;9.40;74.30;;;;;;5055824;28;20061;-79
2021/11/05 02:44:21;;;;;;;3.97;2.72;;;9.40;74.30;;;;;;5039429;28;20029;-79
2021/11/05 02:46:48;;;;;;;4.38;3.05;;;9.40;74.40;;;;;;5055266;28;20091;-79
2021/11/05 02:49:16;;;;;;;3.63;2.65;;;9.40;74.40;;;;;;5038805;28;20032;-79
2021/11/05 02:51:43;;;;;;;3.97;3.00;;;9.40;74.40;;;;;;5055398;28;20120;-79
2021/11/05 02:54:09;;;;;;;4.40;3.20;;;9.30;74.30;;;;;;5056559;28;20025;-79
2021/11/05 02:56:35;;;;;;;3.42;2.85;;;9.30;74.30;;;;;;5055477;28;20436;-79
2021/11/05 02:59:02;;;;;;;3.55;2.70;;;9.30;74.30;;;;;;5055051;28;20027;-79
2021/11/05 03:01:28;;;;;;;4.75;2.88;;;9.30;74.40;;;;;;5055190;28;20040;-78
2021/11/05 03:04:02;;;;;;;3.70;2.60;;;9.30;74.40;;;;;;5038701;28;20030;-79
2021/11/05 03:06:34;;;;;;;3.55;2.70;;;9.20;74.40;;;;;;5055899;28;20033;-79
2021/11/05 03:09:05;;;;;;;3.70;2.65;;;9.20;74.30;;;;;;5055553;28;20048;-79
2021/11/05 03:11:30;;;;;;;3.50;2.65;;;9.20;74.30;;;;;;5055281;28;20037;-78
2021/11/05 03:13:56;;;;;;;3.28;2.55;;;9.20;74.30;;;;;;5054827;28;20143;-79
2021/11/05 03:16:22;;;;;;;4.28;3.00;;;9.20;74.40;;;;;;5054251;28;20083;-79
2021/11/05 03:18:48;;;;;;;3.17;2.55;;;9.10;74.30;;;;;;5054706;28;20025;-79
2021/11/05 03:21:14;;;;;;;3.05;2.20;;;9.10;74.40;;;;;;5055229;28;20033;-79
2021/11/05 03:23:40;;;;;;;2.97;2.28;;;9.10;74.30;;;;;;5054375;28;20459;-79
2021/11/05 03:26:06;;;;;;;3.75;2.60;;;9.10;74.30;;;;;;5054349;28;20128;-79
2021/11/05 03:28:31;;;;;;;3.45;2.63;;;9.10;74.30;;;;;;5055607;28;20033;-79
2021/11/05 03:30:57;;;;;;;2.78;2.30;;;9.10;74.40;;;;;;5054824;28;20372;-79
2021/11/05 03:33:23;;;;;;;3.17;2.47;;;9.10;74.40;;;;;;5071223;28;20031;-80
2021/11/05 03:35:49;;;;;;;2.95;2.30;;;9.00;74.30;;;;;;5054373;28;20132;-79
2021/11/05 03:38:15;;;;;;;3.50;2.50;;;9.00;74.30;;;;;;5054143;28;20236;-79
2021/11/05 03:40:40;;;;;;;3.70;2.70;;;9.00;74.40;;;;;;5037805;28;20037;-79
2021/11/05 03:43:06;;;;;;;3.38;2.40;;;9.00;74.40;;;;;;5055117;28;20025;-79
2021/11/05 03:45:32;;;;;;;4.03;2.75;;;9.00;74.40;;;;;;5054926;28;20068;-79
2021/11/05 03:47:58;;;;;;;3.67;2.65;;;8.90;74.40;;;;;;5037508;28;20025;-79
2021/11/05 03:50:24;;;;;;;3.15;2.35;;;8.90;74.40;;;;;;5054528;28;20461;-79
2021/11/05 03:52:50;;;;;;;3.47;2.47;;;8.90;74.40;;;;;;5054228;28;20025;-79
2021/11/05 03:55:16;;;;;;;3.67;2.40;;;8.90;74.40;;;;;;5053982;28;20029;-79
2021/11/05 03:57:41;;;;;;;3.45;2.60;;;8.90;74.40;;;;;;5054785;28;20029;-79
2021/11/05 04:00:09;;;;;;;3.15;2.60;;;8.90;74.40;;;;;;5055159;28;20025;-79
2021/11/05 04:02:36;;;;;;;2.53;2.10;;;8.90;74.50;;;;;;5054454;28;20029;-79
2021/11/05 04:05:03;;;;;;;4.00;2.50;;;8.90;74.50;;;;;;5055452;28;20025;-79
2021/11/05 04:07:29;;;;;;;2.60;2.40;;;8.80;74.40;;;;;;5070168;28;20040;-79
2021/11/05 04:09:55;;;;;;;2.63;2.40;;;8.80;74.40;;;;;;5054305;28;20033;-79
2021/11/05 04:12:21;;;;;;;2.75;2.20;;;8.80;74.40;;;;;;5053766;28;20029;-78
2021/11/05 04:14:47;;;;;;;4.07;2.40;;;8.80;74.40;;;;;;5054621;28;20021;-78
2021/11/05 04:17:13;;;;;;;3.72;2.30;;;8.80;74.50;;;;;;5054001;28;20024;-78
2021/11/05 04:19:42;;;;;;;3.42;2.35;;;8.80;74.50;;;;;;5053542;28;20033;-79
2021/11/05 04:22:08;;;;;;;2.63;2.08;;;8.80;74.50;;;;;;5054036;28;20021;-78
2021/11/05 04:24:35;;;;;;;3.13;2.22;;;8.70;74.40;;;;;;5054271;28;20080;-79
2021/11/05 04:27:01;;;;;;;3.17;2.30;;;8.70;74.50;;;;;;5054748;28;20037;-79
2021/11/05 04:29:27;;;;;;;2.72;2.10;;;8.70;74.40;;;;;;5053157;28;20035;-79
2021/11/05 04:31:53;;;;;;;3.65;2.50;;;8.70;74.50;;;;;;5053510;28;20112;-78
2021/11/05 04:34:19;;;;;;;3.42;2.35;;;8.70;74.50;;;;;;5053590;28;20040;-79
2021/11/05 04:36:45;;;;;;;3.47;2.30;;;8.70;74.50;;;;;;5053417;28;20040;-78
2021/11/05 04:39:16;;;;;;;2.65;2.08;;;8.70;74.50;;;;;;5053339;28;20032;-78
2021/11/05 04:41:42;;;;;;;3.03;2.20;;;8.70;74.60;;;;;;5053997;28;20043;-78
2021/11/05 04:44:07;;;;;;;2.50;1.90;;;8.70;74.50;;;;;;5053859;28;20025;-78
2021/11/05 04:46:33;;;;;;;2.65;1.90;;;8.60;74.50;;;;;;5070130;28;20033;-79
2021/11/05 04:48:59;;;;;;;3.20;2.15;;;8.60;74.50;;;;;;5053206;28;20098;-79
2021/11/05 04:51:26;;;;;;;2.63;1.95;;;8.60;74.50;;;;;;5053573;28;20523;-80
2021/11/05 04:53:52;;;;;;;2.63;1.95;;;8.60;74.50;;;;;;5053669;28;20025;-78
2021/11/05 04:56:17;;;;;;;3.22;2.08;;;8.60;74.50;;;;;;5036358;28;20037;-79
2021/11/05 04:58:43;;;;;;;2.45;1.90;;;8.60;74.50;;;;;;5052530;28;20078;-78
2021/11/05 05:01:09;;;;;;;2.08;1.83;;;8.60;74.50;;;;;;5053111;28;20032;-78
2021/11/05 05:03:35;;;;;;;2.40;1.83;;;8.60;74.50;;;;;;5052821;28;20049;-79
2021/11/05 05:06:01;;;;;;;2.72;1.95;;;8.60;74.50;;;;;;5052882;28;20507;-79
2021/11/05 05:08:27;;;;;;;2.08;1.80;;;8.50;74.50;;;;;;5035972;28;20017;-78
2021/11/05 05:10:53;;;;;;;2.75;2.10;;;8.50;74.50;;;;;;5052647;28;20037;-79
2021/11/05 05:13:19;;;;;;;2.63;2.08;;;8.50;74.50;;;;;;5052763;28;20054;-79
2021/11/05 05:15:44;;;;;;;1.98;1.80;;;8.50;74.60;;;;;;5053577;28;20032;-78
2021/11/05 05:18:15;;;;;;;2.10;1.85;;;8.50;74.60;;;;;;5036237;28;20040;-79
2021/11/05 05:20:44;;;;;;;1.88;1.70;;;8.50;74.60;;;;;;5053368;28;20056;-78
2021/11/05 05:23:11;;;;;;;3.35;2.20;;;8.40;74.60;;;;;;5052524;28;20492;-79
2021/11/05 05:25:38;;;;;;;2.92;2.00;;;8.40;74.60;;;;;;5052100;28;20052;-78
2021/11/05 05:28:04;;;;;;;3.20;2.10;;;8.50;74.70;;;;;;5053382;28;20036;-77
2021/11/05 05:30:30;;;;;;;3.08;2.50;;;8.40;74.60;;;;;;5052391;28;20025;-79
2021/11/05 05:32:56;;;;;;;1.83;1.63;;;8.40;74.60;;;;;;5035942;28;20424;-78
2021/11/05 05:35:22;;;;;;;3.42;2.25;;;8.40;74.60;;;;;;5035925;28;20024;-79
2021/11/05 05:37:50;;;;;;;2.72;2.22;;;8.40;74.60;;;;;;5052373;28;20033;-79
2021/11/05 05:40:16;;;;;;;2.55;2.00;;;8.40;74.60;;;;;;5052350;28;20389;-79
2021/11/05 05:42:43;;;;;;;3.03;2.20;;;8.30;74.60;;;;;;5053750;28;20035;-78
2021/11/05 05:45:09;;;;;;;2.85;2.03;;;8.40;74.70;;;;;;5052295;28;20025;-78
2021/11/05 05:47:36;;;;;;;3.10;2.17;;;8.40;74.70;;;;;;5052137;28;20064;-79
2021/11/05 05:50:08;;;;;;;2.67;2.08;;;8.30;74.60;;;;;;5052925;28;20086;-79
2021/11/05 05:52:34;;;;;;;3.42;2.40;;;8.30;74.60;;;;;;5051839;28;20036;-79
2021/11/05 05:54:59;;;;;;;3.00;2.33;;;8.30;74.60;;;;;;5035502;28;20033;-79
2021/11/05 05:57:25;;;;;;;3.88;2.40;;;8.30;74.60;;;;;;5053026;28;20037;-78
2021/11/05 05:59:51;;;;;;;2.22;2.03;;;8.30;74.70;;;;;;5052215;28;20483;-79
2021/11/05 06:02:16;;;;;;;3.13;2.40;;;8.30;74.70;;;;;;5052118;28;20032;-78
2021/11/05 06:04:42;;;;;;;3.92;2.50;;;8.30;75.30;;;;;;5035409;28;20131;-78
2021/11/05 06:07:09;;;;;;;2.90;2.30;;;8.30;74.70;;;;;;5052083;28;20466;-79
2021/11/05 06:09:35;;;;;;;3.72;2.47;;;8.30;74.70;;;;;;5052236;28;20021;-78
2021/11/05 06:12:00;;;;;;;3.33;2.40;;;8.30;74.70;;;;;;5051948;28;20036;-79
2021/11/05 06:14:26;;;;;;;3.65;2.70;;;8.20;74.70;;;;;;5052717;28;20031;-77
2021/11/05 06:16:52;;;;;;;4.30;2.88;;;8.20;74.70;;;;;;5051849;28;20029;-77
2021/11/05 06:19:18;;;;;;;3.67;2.60;;;8.20;74.70;;;;;;5051855;28;20032;-77
2021/11/05 06:21:44;;;;;;;3.00;2.55;;;8.20;74.70;;;;;;5052356;28;20037;-80
2021/11/05 06:24:10;;;;;;;3.67;2.50;;;8.20;74.80;;;;;;5052078;28;20029;-81
2021/11/05 06:26:36;;;;;;;3.00;2.33;;;8.20;74.80;;;;;;5052360;28;20057;-79
2021/11/05 06:29:03;;;;;;;3.92;2.65;;;8.20;74.70;;;;;;5052715;28;20061;-81
2021/11/05 06:31:35;;;;;;;3.47;2.70;;;8.20;74.80;;;;;;5035444;28;20037;-79
2021/11/05 06:34:02;;;;;;;2.90;2.50;;;8.20;74.80;;;;;;5051823;28;20039;-80
2021/11/05 06:36:28;;;;;;;3.85;2.35;;;8.20;74.80;;;;;;5051756;28;20040;-80
2021/11/05 06:38:56;;;;;;;3.72;2.63;;;8.20;74.80;;;;;;5051710;28;20025;-79
2021/11/05 06:41:23;;;;;;;3.67;2.50;;;8.20;74.90;;;;;;5052317;28;20172;-80
2021/11/05 06:43:49;;;;;;;3.55;2.70;;;8.20;74.90;;;;;;5052140;28;20025;-78
2021/11/05 06:46:16;;;;;;;3.97;3.03;;;8.10;74.90;;;;;;5051847;28;20521;-78
2021/11/05 06:48:42;;;;;;;3.67;2.70;;;8.10;74.90;;;;;;5051813;28;20032;-78
2021/11/05 06:51:08;;;;;;;4.30;2.95;;;8.10;74.90;;;;;;5035402;28;20029;-80
2021/11/05 06:53:35;;;;;;;3.45;2.85;;;8.10;74.90;;;;;;5072023;28;20106;-80
2021/11/05 06:56:01;;;;;;;3.85;2.75;;;8.20;75.00;;;;;;5055490;28;20029;-78
2021/11/05 06:58:29;;;;;;;3.47;2.78;;;8.10;75.00;;;;;;5056130;28;20055;-80
2021/11/05 07:00:55;;;;;;;3.78;2.65;;;8.10;75.00;;;;;;5055344;28;20120;-79
2021/11/05 07:03:21;;;;;;;4.10;3.00;;;8.20;75.10;;;;;;5056778;28;20029;-78
2021/11/05 07:05:47;;;;;;;3.53;2.60;;;8.10;75.00;;;;;;5054911;28;20041;-79
2021/11/05 07:08:13;;;;;;;2.97;2.35;;;8.10;75.00;;;;;;5055082;28;20021;-79
2021/11/05 07:10:38;;;;;;;3.88;2.83;;;8.10;75.10;;;;;;5054907;28;20041;-77
2021/11/05 07:13:04;;;;;;;4.03;2.80;;;8.10;75.10;;;;;;5055008;28;20074;-77
2021/11/05 07:15:30;;;;;;;3.63;2.58;;;8.10;75.10;;;;;;5055843;28;20484;-77
2021/11/05 07:17:57;;;;;;;2.95;2.55;;;8.10;75.10;;;;;;5054358;28;20067;-77
2021/11/05 07:20:23;;;;;;;3.47;2.60;;;8.10;75.10;;;;;;5054586;28;20055;-77
2021/11/05 07:22:49;;;;;;;3.10;2.50;;;8.20;75.20;;;;;;5055267;28;20028;-78
2021/11/05 07:25:16;;;;;;;3.67;2.60;;;8.20;75.20;;;;;;5055199;28;20056;-78
2021/11/05 07:27:43;;;;;;;2.70;2.28;;;8.20;75.20;;;;;;5054463;28;20033;-77
2021/11/05 07:30:12;;;;;;;3.38;2.42;;;8.20;75.20;;;;;;5054411;28;20033;-77
2021/11/05 07:32:44;;;;;;;3.10;2.50;;;8.20;75.30;;;;;;5055434;28;20104;-78
2021/11/05 07:35:10;;;;;;;3.38;2.58;;;8.20;75.30;;;;;;5071143;28;20060;-78
2021/11/05 07:37:36;;;;;;;3.45;2.50;;;8.20;75.30;;;;;;5054281;28;20064;-77
2021/11/05 07:40:02;;;;;;;3.05;2.53;;;8.20;75.30;;;;;;5054207;28;20040;-78
2021/11/05 07:42:29;;;;;;;3.15;2.33;;;8.20;75.30;;;;;;5037767;28;20029;-79
2021/11/05 07:44:54;;;;;;;3.90;2.65;;;8.20;75.30;;;;;;5038479;28;20037;-77
2021/11/05 07:47:23;;;;;;;3.03;2.33;;;8.20;75.30;;;;;;5054264;28;20397;-77
2021/11/05 07:49:50;;;;;;;2.92;2.38;;;8.20;75.30;;;;;;5055170;28;20033;-78
2021/11/05 07:52:18;;;;;;;3.10;2.33;;;8.20;75.40;;;;;;5054660;28;20025;-77
2021/11/05 07:54:46;;;;;;;3.30;2.30;;;8.20;75.40;;;;;;5055204;28;20029;-77
2021/11/05 07:57:12;;;;;;;3.47;2.55;;;8.20;75.40;;;;;;5054536;28;20033;-77
2021/11/05 07:59:38;;;;;;;3.55;2.63;;;8.20;75.40;;;;;;5053702;28;20036;-78
2021/11/05 08:02:04;;;;;;;3.35;2.45;;;8.20;75.40;;;;;;5053641;28;20081;-78
2021/11/05 08:04:31;;;;;;;3.13;2.22;;;8.20;75.40;;;;;;5053633;28;20036;-79
2021/11/05 08:06:56;;;;;;;2.78;2.30;;;8.20;75.40;;;;;;5053871;28;20032;-78
2021/11/05 08:09:22;;;;;;;3.17;2.40;;;8.20;75.40;;;;;;5053729;28;20037;-77
2021/11/05 08:11:48;;;;;;;3.55;2.50;;;8.20;76.10;;;;;;5054082;28;20454;-78
2021/11/05 08:14:14;;;;;;;2.72;2.38;;;8.20;75.40;;;;;;5053707;28;20080;-78
2021/11/05 08:16:40;;;;;;;2.50;2.10;;;8.20;75.40;;;;;;5053634;28;20032;-78
2021/11/05 08:19:06;;;;;;;3.25;2.17;;;8.30;75.50;;;;;;5037736;28;20064;-78
2021/11/05 08:21:31;;;;;;;2.97;2.40;;;8.30;75.60;;;;;;5036910;28;20469;-78
2021/11/05 08:23:58;;;;;;;3.28;2.40;;;8.30;75.50;;;;;;5053574;28;20361;-78
2021/11/05 08:26:25;;;;;;;3.30;2.42;;;8.30;75.60;;;;;;5053214;28;20558;-79
2021/11/05 08:28:51;;;;;;;2.95;2.30;;;8.30;75.60;;;;;;5053909;28;20064;-78
2021/11/05 08:31:17;;;;;;;3.53;2.35;;;8.30;75.60;;;;;;5054033;28;20021;-78
2021/11/05 08:33:44;;;;;;;2.92;2.25;;;8.30;75.60;;;;;;5041656;28;20036;-78
2021/11/05 08:36:13;;;;;;;2.85;2.28;;;8.30;75.60;;;;;;5055583;28;20475;-77
2021/11/05 08:38:41;;;;;;;2.67;2.25;;;8.30;75.60;;;;;;5054759;28;20021;-78
2021/11/05 08:41:07;;;;;;;3.72;2.90;;;8.30;75.60;;;;;;5053095;28;20025;-78
2021/11/05 08:43:34;;;;;;;2.95;2.38;;;8.30;75.60;;;;;;5036814;28;20478;-78
2021/11/05 08:46:04;;;;;;;3.72;2.10;;;8.40;75.70;;;;;;5053914;28;20033;-77
2021/11/05 08:48:31;;;;;;;2.70;2.00;;;8.40;75.70;;;;;;5053567;28;20446;-78
2021/11/05 08:51:00;;;;;;;3.35;2.13;;;8.40;75.70;;;;;;5052729;28;20064;-78
2021/11/05 08:53:26;;;;;;;2.88;2.13;;;8.40;75.70;;;;;;5053944;28;20033;-78
2021/11/05 08:55:52;;;;;;;3.22;2.33;;;8.40;75.70;;;;;;5052901;28;20491;-78
2021/11/05 08:58:18;;;;;;;2.72;2.20;;;8.40;75.70;;;;;;5053208;28;20037;-78
2021/11/05 09:00:44;;;;;;;3.40;2.33;;;8.50;75.80;;;;;;5053056;28;20475;-78
2021/11/05 09:03:10;;;;;;;3.47;2.20;;;8.50;75.80;;;;;;5036449;28;20120;-78
2021/11/05 09:05:37;;;;;;;3.17;2.20;;;8.50;75.80;;;;;;5052974;28;20388;-78
2021/11/05 09:08:04;;;;;;;3.10;2.00;;;8.50;75.80;;;;;;5069460;28;20040;-79
2021/11/05 09:10:31;;;;;;;2.42;2.05;;;8.50;75.80;;;;;;5052789;28;20087;-78
2021/11/05 09:12:57;;;;;;;2.72;2.17;;;8.60;75.90;;;;;;5035965;28;20090;-78
2021/11/05 09:15:25;;;;;;;2.75;2.13;;;8.60;75.90;;;;;;5051943;28;20037;-80
2021/11/05 09:17:53;;;;;;;2.95;2.17;;;8.60;76.00;;;;;;5052482;28;20037;-79
2021/11/05 09:20:19;;;;;;;2.42;1.92;;;8.60;76.00;;;;;;5052616;28;20497;-79
2021/11/05 09:22:46;;;;;;;2.63;1.98;;;8.70;76.00;;;;;;5052590;28;20060;-79
2021/11/05 09:25:12;;;;;;;3.00;2.20;;;8.70;76.00;;;;;;5052056;28;20052;-78
2021/11/05 09:27:38;;;;;;;3.17;2.20;;;8.70;76.00;;;;;;5052330;28;20099;-79
2021/11/05 09:30:07;;;;;;;2.75;2.20;;;8.80;76.10;;;;;;5052321;28;20434;-79
2021/11/05 09:32:33;;;;;;;2.75;2.28;;;8.80;76.10;;;;;;5053221;28;20082;-79
2021/11/05 09:34:59;;;;;;;2.60;2.00;;;8.90;76.20;;;;;;5052321;28;20056;-79
2021/11/05 09:37:25;;;;;;;2.65;2.20;;;8.90;76.30;;;;;;5052740;28;20487;-78
2021/11/05 09:39:51;;;;;;;2.65;2.10;;;8.90;76.30;;;;;;5052557;28;20474;-80
2021/11/05 09:42:17;;;;;;;2.75;2.03;;;8.90;76.30;;;;;;5054121;28;20126;-79
2021/11/05 09:44:44;;;;;;;2.90;1.90;;;9.00;76.30;;;;;;5053046;28;20029;-79
2021/11/05 09:47:12;;;;;;;2.50;2.20;;;9.00;76.40;;;;;;5052203;28;20044;-78
2021/11/05 09:49:37;;;;;;;2.97;2.10;;;9.00;76.40;;;;;;5052023;28;20060;-78
2021/11/05 09:52:04;;;;;;;3.08;2.22;;;9.10;76.50;;;;;;5053103;28;20018;-80
2021/11/05 09:54:32;;;;;;;3.40;2.08;;;9.10;76.50;;;;;;5052077;28;20510;-79
2021/11/05 09:56:59;;;;;;;2.17;1.92;;;9.10;76.60;;;;;;5052091;28;20464;-78
2021/11/05 09:59:26;;;;;;;2.67;2.40;;;9.20;76.60;;;;;;5052395;28;20450;-78
2021/11/05 10:01:51;;;;;;;4.05;2.13;;;9.20;76.70;;;;;;5035965;28;20384;-77
2021/11/05 10:04:17;;;;;;;2.25;1.92;;;9.20;76.80;;;;;;5051981;28;20125;-78
2021/11/05 10:07:06;;;;;;;2.47;2.17;;;9.30;76.80;;;;;;5052290;28;20359;-81
2021/11/05 10:09:40;;;;;;;2.85;2.20;;;9.30;77.00;;;;;;5052307;28;20056;-77
2021/11/05 10:12:24;;;;;;;2.85;2.22;;;9.30;76.80;;;;;;5052808;28;20083;-77
2021/11/05 10:15:00;;;;;;;4.13;2.10;;;9.40;77.00;;;;;;5051900;28;20111;-77
2021/11/05 10:17:27;;;;;;;2.88;2.10;;;9.40;77.00;;;;;;5053539;28;20057;-79
2021/11/05 10:20:02;;;;;;;2.05;1.83;;;9.40;76.90;;;;;;5035347;28;20036;-79
2021/11/05 10:22:34;;;;;;;2.58;2.00;;;9.50;77.10;;;;;;5051838;28;20029;-79
2021/11/05 10:25:18;;;;;;;3.13;2.47;;;9.50;77.10;;;;;;5052758;28;20087;-80
2021/11/05 10:27:45;;;;;;;3.47;2.20;;;9.50;77.20;;;;;;5057037;28;20069;-79
2021/11/05 10:30:11;;;;;;;2.55;2.13;;;9.60;77.10;;;;;;5055235;28;20112;-78
2021/11/05 10:32:41;;;;;;;3.08;2.08;;;9.60;77.10;;;;;;5055439;28;20040;-78
2021/11/05 10:35:17;;;;;;;2.30;2.00;;;9.60;77.20;;;;;;5057045;28;20048;-79
2021/11/05 10:37:43;;;;;;;3.15;2.10;;;9.70;77.30;;;;;;5055570;28;20043;-78
2021/11/05 10:40:10;;;;;;;2.78;2.10;;;9.70;77.20;;;;;;5055314;28;20025;-77
2021/11/05 10:42:38;;;;;;;2.78;2.30;;;9.80;77.30;;;;;;5055286;28;20150;-79
2021/11/05 10:45:22;;;;;;;2.55;2.20;;;9.80;77.30;;;;;;5055243;28;20017;-79
2021/11/05 10:47:58;;;;;;;2.83;2.30;;;9.90;77.50;;;;;;5057166;28;20484;-78
2021/11/05 10:50:28;;;;;;;3.13;2.22;;;9.90;77.40;;;;;;5055636;28;20051;-78
2021/11/05 10:53:01;;;;;;;2.90;2.03;;;9.90;77.40;;;;;;5055275;28;20021;-80
2021/11/05 10:55:49;;;;;;;2.55;2.20;;;10.00;77.50;;;;;;5055508;28;20448;-78
2021/11/05 10:58:29;;;;;;;3.17;2.13;;;10.00;77.70;;;;;;5055120;28;20067;-80
2021/11/05 11:00:58;;;;;;;3.13;2.00;;;10.00;77.50;;;;;;5040351;28;20041;-80
2021/11/05 11:03:31;;;;;;;3.58;2.30;;;10.00;77.50;;;;;;5055160;28;20025;-80
2021/11/05 11:06:03;;;;;;;2.72;1.83;;;10.10;77.70;;;;;;5054653;28;20044;-80
2021/11/05 11:08:33;;;;;;;3.85;2.40;;;10.10;77.70;;;;;;5054968;28;20131;-78
2021/11/05 11:11:13;;;;;;;2.38;2.13;;;10.10;77.80;;;;;;5055144;28;20428;-79
2021/11/05 11:13:40;;;;;;;3.55;2.40;;;10.20;77.90;;;;;;5055707;28;20029;-79
2021/11/05 11:16:15;;;;;;;2.35;2.00;;;10.20;77.90;;;;;;5039534;28;20033;-79
2021/11/05 11:18:58;;;;;;;2.55;1.90;;;10.20;78.00;;;;;;5055498;28;20025;-79
2021/11/05 11:21:49;;;;;;;1.98;1.77;;;10.30;78.20;;;;;;5054695;28;20032;-79
2021/11/05 11:24:19;;;;;;;2.45;1.83;;;10.30;78.10;;;;;;5070283;28;20136;-79
2021/11/05 11:26:46;;;;;;;1.70;1.60;;;10.40;78.10;;;;;;5054808;28;20087;-79
2021/11/05 11:29:14;;;;;;;2.45;1.90;;;10.40;78.20;;;;;;5056055;28;20434;-79
2021/11/05 11:31:41;;;;;;;2.38;1.88;;;10.40;78.20;;;;;;5054644;28;20093;-79
2021/11/05 11:34:10;;;;;;;3.75;2.28;;;10.50;78.30;;;;;;5071462;28;20112;-78
2021/11/05 11:36:39;;;;;;;2.85;1.80;;;10.50;78.40;;;;;;5071110;28;20446;-78
2021/11/05 11:39:09;;;;;;;3.80;2.10;;;10.50;78.40;;;;;;5053617;28;20509;-78
2021/11/05 11:41:36;;;;;;;4.85;2.20;;;10.60;78.50;;;;;;5053927;28;20025;-78
2021/11/05 11:44:03;;;;;;;4.28;1.85;;;10.60;78.50;;;;;;5054522;28;20033;-80
2021/11/05 11:46:50;;;;;;;2.78;1.80;;;10.70;78.50;;;;;;5071310;28;20041;-78
2021/11/05 11:49:34;;;;;;;2.38;1.80;;;10.70;78.50;;;;;;5070700;28;20061;-78
2021/11/05 11:51:59;;;;;;;4.00;2.20;;;10.80;79.30;;;;;;5054895;28;20040;-78
2021/11/05 11:54:28;;;;;;;1.50;1.40;;;10.80;78.50;;;;;;5054063;28;20025;-78
2021/11/05 11:56:55;;;;;;;3.72;1.70;;;10.90;78.60;;;;;;5054177;28;20473;-79
2021/11/05 11:59:29;;;;;;;3.28;1.60;;;10.90;78.60;;;;;;5055217;28;20112;-78
2021/11/05 12:01:56;;;;;;;2.53;1.77;;;11.00;78.70;;;;;;5054172;28;20040;-78
2021/11/05 12:04:34;;;;;;;2.83;1.40;;;11.00;78.60;;;;;;5070568;28;20031;-78
2021/11/05 12:07:02;;;;;;;2.20;1.40;;;11.00;78.70;;;;;;5070646;28;20048;-79
2021/11/05 12:09:39;;;;;;;4.18;1.95;;;11.10;78.70;;;;;;5053716;28;20528;-77
2021/11/05 12:12:20;;;;;;;2.38;1.48;;;11.20;78.80;;;;;;5070591;28;20078;-77
2021/11/05 12:15:01;;;;;;;2.65;1.42;;;11.20;78.90;;;;;;5053840;28;20056;-79
2021/11/05 12:17:45;;;;;;;2.67;1.40;;;11.30;78.90;;;;;;5054722;28;20037;-79
2021/11/05 12:20:33;;;;;;;1.58;1.30;;;11.30;78.90;;;;;;5054533;28;20488;-77
2021/11/05 12:23:10;;;;;;;2.67;1.58;;;11.30;78.90;;;;;;5070278;28;20475;-78
2021/11/05 12:25:57;;;;;;;1.30;1.02;;;11.40;78.90;;;;;;5053260;28;20087;-80
2021/11/05 12:28:28;;;;;;;1.13;1.13;;;11.40;78.90;;;;;;5053463;28;20067;-77
2021/11/05 12:31:25;;;;;;;2.03;1.30;;;11.50;78.80;;;;;;5054190;28;20029;-79
2021/11/05 12:33:52;;;;;;;1.70;1.15;;;11.50;79.10;;;;;;5053529;28;20060;-78
2021/11/05 12:36:18;;;;;;;1.35;1.02;;;11.50;78.80;;;;;;5053142;28;20033;-77
2021/11/05 12:39:06;;;;;;;2.65;1.20;;;11.60;78.90;;;;;;5053564;28;20037;-78
2021/11/05 12:41:32;;;;;;;3.15;1.35;;;11.60;79.10;;;;;;5036600;28;20033;-78
2021/11/05 12:44:24;;;;;;;3.85;1.20;;;11.60;78.80;;;;;;5069557;28;20060;-78
2021/11/05 12:46:50;;;;;;;2.33;1.20;;;11.70;79.10;;;;;;5033303;28;20064;-77
2021/11/05 12:49:18;;;;;;;1.70;1.27;;;11.70;78.80;;;;;;5052755;28;20372;-75
2021/11/05 12:51:49;;;;;;;1.77;1.20;;;11.80;78.90;;;;;;5053254;28;20086;-77
2021/11/05 12:54:24;;;;;;;1.65;1.20;;;11.90;79.00;;;;;;5069316;28;20671;-77
2021/11/05 12:56:55;;;;;;;2.75;1.23;;;11.90;79.00;;;;;;5053410;28;20047;-76
2021/11/05 12:59:26;;;;;;;1.20;1.10;;;11.90;78.90;;;;;;5052858;28;20032;-77